Startpagina
METAR-TAF:

METAR-TAF

Vliegvelden :

Diest, België

Schaffen

breedte: 51-00N, lengte: 005-04E, hoogte: 30 m

Actueel weer

Dit bericht is 35 minuten geleden gemaakt, om 09:55 UTC
Wind 6 kt uit het zuiden
Temperatuur 16°C
Vochtigheid 63%
Druk 1020 hPa
Zicht 10 km of meer
Gebroken wolken op 25000 ft

METAR: EBDT 210955Z 17006KT 9999 BKN250 16/09 Q1020 BLU BLU

Tijdstip: 12:30 (10:30 UTC)

Verwachting

Dit bericht is 1 uur en het 49 minuten geleden gemaakt, om 08:41 UTC
Verwachting geldig van 21 om 10 UTC tot 21 om 19 UTC
Wind 5 kt uit het zuidzuidoosten
Zicht 10 km of meer
Weinig wolken op 1800 ft
Verspreide wolken op 8000 ft
Gebroken wolken op 25000 ft

TAF: EBDT 210841Z 2110/2119 16005KT 9999 FEW018 SCT080 BKN250

Waarnemingen en weersverwachtingen van meer dan 4000 vliegvelden (METAR en TAF).

De beschikbare stations zijn de gele en rode punten op de kaart.

Ga met uw muis naar het station om de naam te zien.

Klik dan om waarnemingen en weersverwachtingen te zien.

kaart wijzigen: klik op de groene knoppen met een zwart kruis om in te zoomen, op de groene knop met een streepje om uit te zoomen of op de groene pijlen voor aangrenzende kaarten.


METAR-TAF: